Time;durP1;ratioP1;P1;durP2;ratioP2;P2;SDS_P1;SDS_P2;PMS_P1;PMS_P2;Temp;Humidity;BMP_temperature;BMP_pressure;BME280_temperature;BME280_humidity;BME280_pressure;Samples;Min_cycle;Max_cycle;Signal;HPM_P1;HPM_P2
2022/01/09 00:00:38;;;;;;;;;;;4.00;99.90;;;;;;6123785;23;19924;-80
2022/01/09 00:03:03;;;;;;;;;;;4.00;99.90;;;;;;6148109;23;20291;-79
2022/01/09 00:05:30;;;;;;;;;;;4.00;99.90;;;;;;6120352;23;19944;-85
2022/01/09 00:07:56;;;;;;;;;;;4.00;99.90;;;;;;6144559;23;19958;-81
2022/01/09 00:10:22;;;;;;;;;;;5.10;99.90;;;;;;6147291;23;19932;-81
2022/01/09 00:12:48;;;;;;;;;;;4.00;99.90;;;;;;6120944;23;20330;-83
2022/01/09 00:15:14;;;;;;;;;;;4.70;99.90;;;;;;6144693;23;19943;-79
2022/01/09 00:17:39;;;;;;;;;;;4.00;99.90;;;;;;6122801;23;20295;-81
2022/01/09 00:20:06;;;;;;;;;;;4.00;99.90;;;;;;6121142;23;20367;-80
2022/01/09 00:25:00;;;;;;;;;;;3.80;99.90;;;;;;6120486;23;19924;-81
2022/01/09 00:27:28;;;;;;;;;;;4.00;99.90;;;;;;6147892;23;19924;-83
2022/01/09 00:29:54;;;;;;;;;;;4.00;99.90;;;;;;6118813;23;19924;-81
2022/01/09 00:32:19;;;;;;;;;;;4.00;99.90;;;;;;6145051;23;19940;-81
2022/01/09 00:34:45;;;;;;;;;;;4.00;99.90;;;;;;6146947;23;19921;-80
2022/01/09 00:37:10;;;;;;;;;;;4.00;99.90;;;;;;6121912;23;20007;-81
2022/01/09 00:39:36;;;;;;;;;;;4.00;99.90;;;;;;6146539;23;19925;-80
2022/01/09 00:42:05;;;;;;;;;;;4.00;99.90;;;;;;6130873;23;19928;-81
2022/01/09 00:44:31;;;;;;;;;;;3.90;99.90;;;;;;6113601;23;19932;-80
2022/01/09 00:47:00;;;;;;;;;;;5.10;99.90;;;;;;6115179;23;19917;-81
2022/01/09 00:49:25;;;;;;;;;;;4.00;99.90;;;;;;6117209;23;19929;-82
2022/01/09 00:51:51;;;;;;;;;;;4.00;99.90;;;;;;6112358;23;19943;-81
2022/01/09 00:54:16;;;;;;;;;;;4.00;99.90;;;;;;6114046;23;19925;-79
2022/01/09 00:56:42;;;;;;;;;;;4.00;99.90;;;;;;6094133;23;19982;-81
2022/01/09 00:59:07;;;;;;;;;;;4.00;99.90;;;;;;6145770;23;19947;-80
2022/01/09 01:01:33;;;;;;;;;;;4.00;99.90;;;;;;6145095;23;19924;-83
2022/01/09 01:03:58;;;;;;;;;;;3.90;99.90;;;;;;6145220;23;19992;-82
2022/01/09 01:06:24;;;;;;;;;;;4.00;99.90;;;;;;6142076;23;19920;-80
2022/01/09 01:08:49;;;;;;;;;;;3.90;99.90;;;;;;6145858;23;19956;-80
2022/01/09 01:11:15;;;;;;;;;;;4.00;99.90;;;;;;6119792;23;19928;-81
2022/01/09 01:13:40;;;;;;;;;;;4.00;99.90;;;;;;6142680;23;19925;-81
2022/01/09 01:16:06;;;;;;;;;;;4.00;99.90;;;;;;6119669;23;19924;-80
2022/01/09 01:18:31;;;;;;;;;;;3.90;99.90;;;;;;6146137;23;19924;-81
2022/01/09 01:20:57;;;;;;;;;;;4.00;99.90;;;;;;6122754;23;19920;-82
2022/01/09 01:23:22;;;;;;;;;;;4.00;99.90;;;;;;6119874;23;19930;-83
2022/01/09 01:25:51;;;;;;;;;;;4.00;99.90;;;;;;6121077;23;19927;-81
2022/01/09 01:28:20;;;;;;;;;;;4.00;99.90;;;;;;6147360;23;20356;-81
2022/01/09 01:30:46;;;;;;;;;;;4.00;99.90;;;;;;6119590;23;19929;-80
2022/01/09 01:33:12;;;;;;;;;;;4.00;99.90;;;;;;6142129;23;20019;-80
2022/01/09 01:35:37;;;;;;;;;;;4.00;99.90;;;;;;6142424;23;19952;-83
2022/01/09 01:38:03;;;;;;;;;;;4.00;99.90;;;;;;6118930;23;19924;-81
2022/01/09 01:40:28;;;;;;;;;;;4.00;99.90;;;;;;6142540;23;19920;-82
2022/01/09 01:42:54;;;;;;;;;;;4.00;99.90;;;;;;6118320;23;20318;-81
2022/01/09 01:45:20;;;;;;;;;;;4.00;99.90;;;;;;6148724;23;19956;-81
2022/01/09 01:47:46;;;;;;;;;;;4.00;99.90;;;;;;6118632;23;20379;-81
2022/01/09 01:50:13;;;;;;;;;;;4.00;99.90;;;;;;6142104;23;19963;-80
2022/01/09 01:52:43;;;;;;;;;;;4.00;99.90;;;;;;6115667;23;19991;-80
2022/01/09 01:55:10;;;;;;;;;;;4.00;99.90;;;;;;6145166;23;19989;-80
2022/01/09 01:57:38;;;;;;;;;;;4.00;99.90;;;;;;6144332;23;20388;-81
2022/01/09 02:00:05;;;;;;;;;;;4.00;99.90;;;;;;6146633;23;19984;-81
2022/01/09 02:02:31;;;;;;;;;;;4.00;99.90;;;;;;6119767;23;19921;-80
2022/01/09 02:04:56;;;;;;;;;;;4.00;99.90;;;;;;6146542;23;19927;-81
2022/01/09 02:07:22;;;;;;;;;;;4.00;99.90;;;;;;6146409;23;19921;-81
2022/01/09 02:09:48;;;;;;;;;;;4.00;99.90;;;;;;6118973;23;19940;-81
2022/01/09 02:12:13;;;;;;;;;;;4.00;99.90;;;;;;6145420;23;19921;-81
2022/01/09 02:14:47;;;;;;;;;;;4.10;99.90;;;;;;6120982;23;19916;-80
2022/01/09 02:17:17;;;;;;;;;;;4.10;99.90;;;;;;6146097;23;19994;-80
2022/01/09 02:19:49;;;;;;;;;;;4.10;99.90;;;;;;6147339;23;20037;-80
2022/01/09 02:22:15;;;;;;;;;;;4.10;99.90;;;;;;6144502;23;19999;-80
2022/01/09 02:24:42;;;;;;;;;;;4.10;99.90;;;;;;6144310;23;19924;-81
2022/01/09 02:27:08;;;;;;;;;;;4.10;99.90;;;;;;6145393;23;19939;-82
2022/01/09 02:29:33;;;;;;;;;;;4.10;99.90;;;;;;6120206;23;19920;-80
2022/01/09 02:31:59;;;;;;;;;;;4.10;99.90;;;;;;6145264;23;19924;-81
2022/01/09 02:34:24;;;;;;;;;;;4.10;99.90;;;;;;6144735;23;20351;-80
2022/01/09 02:36:50;;;;;;;;;;;4.10;99.90;;;;;;6145743;23;20000;-81
2022/01/09 02:39:15;;;;;;;;;;;4.10;99.90;;;;;;6145799;23;19951;-80
2022/01/09 02:41:41;;;;;;;;;;;4.10;99.90;;;;;;6144775;23;20372;-82
2022/01/09 02:44:08;;;;;;;;;;;4.10;99.90;;;;;;6144774;23;19979;-81
2022/01/09 02:49:18;;;;;;;;;;;4.20;99.90;;;;;;6120942;23;19991;-81
2022/01/09 02:51:45;;;;;;;;;;;4.20;99.90;;;;;;6119214;23;19956;-81
2022/01/09 02:56:59;;;;;;;;;;;4.20;99.90;;;;;;6092910;23;19935;-82
2022/01/09 02:59:25;;;;;;;;;;;4.20;99.90;;;;;;6145464;23;19971;-82
2022/01/09 03:01:50;;;;;;;;;;;4.20;99.90;;;;;;6144622;23;19933;-82
2022/01/09 03:04:16;;;;;;;;;;;4.30;99.90;;;;;;6148832;23;19995;-83
2022/01/09 03:06:42;;;;;;;;;;;4.30;99.90;;;;;;6119386;23;19948;-83
2022/01/09 03:09:07;;;;;;;;;;;4.40;99.90;;;;;;6147195;23;20396;-84
2022/01/09 03:11:33;;;;;;;;;;;4.30;99.90;;;;;;6119340;23;19921;-81
2022/01/09 03:14:02;;;;;;;;;;;4.40;99.90;;;;;;6145180;23;19935;-82
2022/01/09 03:16:31;;;;;;;;;;;4.40;99.90;;;;;;6146404;23;19921;-85
2022/01/09 03:18:57;;;;;;;;;;;4.50;99.90;;;;;;6144840;23;20265;-84
2022/01/09 03:21:22;;;;;;;;;;;4.50;99.90;;;;;;6147292;23;19920;-89
2022/01/09 03:23:48;;;;;;;;;;;4.50;99.90;;;;;;6152508;23;19921;-93
2022/01/09 03:26:14;;;;;;;;;;;4.60;99.90;;;;;;6128000;23;20086;-96
2022/01/09 03:28:57;;;;;;;;;;;4.80;99.90;;;;;;6127792;23;19925;-91
2022/01/09 03:31:32;;;;;;;;;;;4.60;99.90;;;;;;6125836;23;20248;-86
2022/01/09 03:34:06;;;;;;;;;;;4.70;99.90;;;;;;6152340;23;19947;-91
2022/01/09 03:36:32;;;;;;;;;;;4.00;99.90;;;;;;6124015;23;19963;-85
2022/01/09 03:38:57;;;;;;;;;;;6.20;99.90;;;;;;6147620;23;19921;-86
2022/01/09 03:41:30;;;;;;;;;;;4.80;99.90;;;;;;6120288;23;19920;-85
2022/01/09 03:43:56;;;;;;;;;;;4.60;99.90;;;;;;6121164;23;19921;-85
2022/01/09 03:46:24;;;;;;;;;;;4.80;99.90;;;;;;6121710;23;19938;-85
2022/01/09 03:48:50;;;;;;;;;;;4.90;99.90;;;;;;6119864;23;20337;-86
2022/01/09 03:51:15;;;;;;;;;;;4.90;99.90;;;;;;6118513;23;19979;-85
2022/01/09 03:53:41;;;;;;;;;;;5.50;99.90;;;;;;6118929;23;20004;-85
2022/01/09 03:56:06;;;;;;;;;;;4.90;99.90;;;;;;6144084;23;19988;-85
2022/01/09 03:58:47;;;;;;;;;;;5.00;99.90;;;;;;6121605;23;20336;-85
2022/01/09 04:01:14;;;;;;;;;;;4.90;99.90;;;;;;6120270;23;19928;-84
2022/01/09 04:03:40;;;;;;;;;;;5.70;99.90;;;;;;6120300;23;19969;-91
2022/01/09 04:06:05;;;;;;;;;;;5.00;99.90;;;;;;6145258;23;19988;-85
2022/01/09 04:08:33;;;;;;;;;;;4.90;99.90;;;;;;6147583;23;19924;-86
2022/01/09 04:11:11;;;;;;;;;;;5.70;99.90;;;;;;6144060;23;19932;-84
2022/01/09 04:13:52;;;;;;;;;;;5.00;99.90;;;;;;6119969;23;20226;-84
2022/01/09 04:16:18;;;;;;;;;;;5.00;99.90;;;;;;6145807;23;20006;-85
2022/01/09 04:18:43;;;;;;;;;;;5.00;99.90;;;;;;6146961;23;19951;-85
2022/01/09 04:21:09;;;;;;;;;;;7.20;99.90;;;;;;6143691;23;20525;-84
2022/01/09 04:23:49;;;;;;;;;;;5.00;99.90;;;;;;6143137;23;20019;-85
2022/01/09 04:26:16;;;;;;;;;;;3.70;99.90;;;;;;6145761;23;19931;-84
2022/01/09 04:28:42;;;;;;;;;;;5.20;99.90;;;;;;6122411;23;19927;-83
2022/01/09 04:31:19;;;;;;;;;;;;;;;;;;;;;
2022/01/09 04:33:48;;;;;;;;;;;5.10;99.90;;;;;;6117014;23;19995;-83
2022/01/09 04:36:14;;;;;;;;;;;8.30;99.90;;;;;;6143682;23;19956;-82
2022/01/09 04:38:48;;;;;;;;;;;5.20;99.90;;;;;;6144645;23;19920;-83
2022/01/09 04:41:14;;;;;;;;;;;5.10;99.90;;;;;;6144204;23;20637;-82
2022/01/09 04:43:42;;;;;;;;;;;5.20;99.90;;;;;;6118059;23;20012;-84
2022/01/09 04:46:28;;;;;;;;;;;5.30;99.90;;;;;;6148194;23;19921;-83
2022/01/09 04:48:55;;;;;;;;;;;5.30;99.90;;;;;;6119831;23;20008;-84
2022/01/09 04:51:21;;;;;;;;;;;5.30;99.90;;;;;;6120213;23;19980;-86
2022/01/09 04:53:56;;;;;;;;;;;5.20;99.90;;;;;;6145173;23;19924;-82
2022/01/09 04:56:22;;;;;;;;;;;5.00;99.90;;;;;;6123104;23;19925;-84
2022/01/09 04:58:56;;;;;;;;;;;6.50;99.90;;;;;;6121572;23;19943;-83
2022/01/09 05:01:22;;;;;;;;;;;5.30;99.90;;;;;;6144927;23;19917;-84
2022/01/09 05:03:47;;;;;;;;;;;5.30;99.90;;;;;;6122564;23;20238;-88
2022/01/09 05:06:13;;;;;;;;;;;5.00;99.90;;;;;;6142143;23;19920;-83
2022/01/09 05:08:39;;;;;;;;;;;5.30;99.90;;;;;;6143358;23;19947;-84
2022/01/09 05:11:04;;;;;;;;;;;5.30;99.90;;;;;;6120645;23;20043;-82
2022/01/09 05:13:30;;;;;;;;;;;4.60;99.90;;;;;;6119206;23;19927;-84
2022/01/09 05:16:10;;;;;;;;;;;5.30;99.90;;;;;;6119924;23;19932;-84
2022/01/09 05:18:50;;;;;;;;;;;5.40;99.90;;;;;;6146833;23;20318;-84
2022/01/09 05:21:25;;;;;;;;;;;5.80;99.90;;;;;;6119773;23;20477;-84
2022/01/09 05:23:50;;;;;;;;;;;5.40;99.90;;;;;;6122579;23;19924;-85
2022/01/09 05:26:16;;;;;;;;;;;5.40;99.90;;;;;;6120225;23;19928;-85
2022/01/09 05:28:41;;;;;;;;;;;5.40;99.90;;;;;;6122576;23;19996;-84
2022/01/09 05:31:16;;;;;;;;;;;5.40;99.90;;;;;;6120729;23;19920;-84
2022/01/09 05:33:42;;;;;;;;;;;5.40;99.90;;;;;;6145408;23;20349;-84
2022/01/09 05:36:07;;;;;;;;;;;5.80;99.90;;;;;;6143271;23;19920;-85
2022/01/09 05:38:33;;;;;;;;;;;5.30;99.90;;;;;;6119011;23;19964;-85
2022/01/09 05:40:59;;;;;;;;;;;6.20;99.90;;;;;;6118742;23;19921;-85
2022/01/09 05:43:42;;;;;;;;;;;6.20;99.90;;;;;;6118880;23;19925;-83
2022/01/09 05:46:20;;;;;;;;;;;5.30;99.90;;;;;;6147037;23;20646;-83
2022/01/09 05:48:45;;;;;;;;;;;5.30;99.90;;;;;;6119051;23;20480;-83
2022/01/09 05:51:11;;;;;;;;;;;5.40;99.90;;;;;;6145039;23;19921;-83
2022/01/09 05:53:43;;;;;;;;;;;4.70;99.90;;;;;;6142907;23;19924;-83
2022/01/09 05:56:08;;;;;;;;;;;5.30;99.90;;;;;;6121564;23;19924;-83
2022/01/09 05:58:39;;;;;;;;;;;5.40;99.90;;;;;;6148198;23;19960;-82
2022/01/09 06:01:27;;;;;;;;;;;5.30;99.90;;;;;;6144591;23;19929;-83
2022/01/09 06:03:52;;;;;;;;;;;6.00;99.90;;;;;;6143561;23;19924;-84
2022/01/09 06:06:30;;;;;;;;;;;5.20;99.90;;;;;;6146732;23;19925;-83
2022/01/09 06:08:56;;;;;;;;;;;5.20;99.90;;;;;;6118687;23;19920;-83
2022/01/09 06:11:21;;;;;;;;;;;5.20;99.90;;;;;;6144652;23;20249;-88
2022/01/09 06:13:47;;;;;;;;;;;5.20;99.90;;;;;;6122316;23;20000;-83
2022/01/09 06:16:19;;;;;;;;;;;6.30;99.90;;;;;;6145133;23;19927;-83
2022/01/09 06:19:00;;;;;;;;;;;4.80;99.90;;;;;;6122489;23;20015;-82
2022/01/09 06:21:29;;;;;;;;;;;6.20;99.90;;;;;;6121200;23;19920;-83
2022/01/09 06:23:55;;;;;;;;;;;5.20;99.90;;;;;;6143236;23;19948;-84
2022/01/09 06:26:23;;;;;;;;;;;5.10;99.90;;;;;;6119327;23;19991;-84
2022/01/09 06:28:49;;;;;;;;;;;5.20;99.90;;;;;;6143146;23;19928;-83
2022/01/09 06:31:33;;;;;;;;;;;5.20;99.90;;;;;;6144700;23;20215;-83
2022/01/09 06:34:04;;;;;;;;;;;4.60;99.90;;;;;;6118265;23;19925;-82
2022/01/09 06:36:30;;;;;;;;;;;5.40;99.90;;;;;;6120231;23;19967;-83
2022/01/09 06:38:55;;;;;;;;;;;5.00;99.90;;;;;;6120095;23;19921;-83
2022/01/09 06:41:21;;;;;;;;;;;5.20;99.90;;;;;;6144838;23;19923;-81
2022/01/09 06:43:56;;;;;;;;;;;5.20;99.90;;;;;;6144162;23;20338;-82
2022/01/09 06:46:22;;;;;;;;;;;5.10;99.90;;;;;;6144393;23;20352;-83
2022/01/09 06:48:56;;;;;;;;;;;5.30;99.90;;;;;;6145197;23;20020;-82
2022/01/09 06:51:30;;;;;;;;;;;5.20;99.90;;;;;;6143615;23;19984;-82
2022/01/09 06:53:57;;;;;;;;;;;5.20;99.90;;;;;;6119684;23;19920;-82
2022/01/09 06:56:22;;;;;;;;;;;5.20;99.90;;;;;;6123043;23;19983;-85
2022/01/09 06:58:48;;;;;;;;;;;6.70;99.90;;;;;;6145742;23;20289;-84
2022/01/09 07:01:13;;;;;;;;;;;5.70;99.90;;;;;;6122880;23;20055;-80
2022/01/09 07:03:48;;;;;;;;;;;4.40;99.90;;;;;;6121578;23;19928;-83
2022/01/09 07:06:14;;;;;;;;;;;5.10;99.90;;;;;;6122322;23;19921;-82
2022/01/09 07:08:39;;;;;;;;;;;4.80;99.90;;;;;;6147115;23;20358;-82
2022/01/09 07:11:05;;;;;;;;;;;7.10;99.90;;;;;;6121998;23;19936;-82
2022/01/09 07:13:31;;;;;;;;;;;6.70;99.90;;;;;;6147011;23;19924;-82
2022/01/09 07:15:57;;;;;;;;;;;4.70;99.90;;;;;;6147067;23;20381;-82
2022/01/09 07:18:23;;;;;;;;;;;5.10;99.90;;;;;;6146024;23;19932;-83
2022/01/09 07:20:50;;;;;;;;;;;5.70;99.90;;;;;;6145845;23;19928;-81
2022/01/09 07:23:31;;;;;;;;;;;5.10;99.90;;;;;;6122288;23;19924;-82
2022/01/09 07:25:57;;;;;;;;;;;5.20;99.90;;;;;;6119175;23;20090;-81
2022/01/09 07:28:23;;;;;;;;;;;5.10;99.90;;;;;;6146081;23;20343;-82
2022/01/09 07:30:48;;;;;;;;;;;5.10;99.90;;;;;;6145886;23;19999;-82
2022/01/09 07:33:14;;;;;;;;;;;5.10;99.90;;;;;;6145976;23;19927;-81
2022/01/09 07:35:54;;;;;;;;;;;5.10;99.90;;;;;;6122390;23;19924;-81
2022/01/09 07:38:35;;;;;;;;;;;5.10;99.90;;;;;;6121280;23;19962;-81
2022/01/09 07:41:01;;;;;;;;;;;5.10;99.90;;;;;;6121982;23;20635;-81
2022/01/09 07:43:26;;;;;;;;;;;5.00;99.90;;;;;;6122622;23;19991;-82
2022/01/09 07:46:04;;;;;;;;;;;5.00;99.90;;;;;;6121035;23;19928;-82
2022/01/09 07:48:30;;;;;;;;;;;4.10;99.90;;;;;;6122331;23;19924;-83
2022/01/09 07:50:55;;;;;;;;;;;5.00;99.90;;;;;;6121991;23;19924;-82
2022/01/09 07:53:39;;;;;;;;;;;5.20;99.90;;;;;;6120332;23;19930;-82
2022/01/09 07:56:05;;;;;;;;;;;5.00;99.90;;;;;;6122934;23;19924;-82
2022/01/09 07:58:31;;;;;;;;;;;4.90;99.90;;;;;;6122406;23;19931;-83
2022/01/09 08:00:57;;;;;;;;;;;5.30;99.90;;;;;;6121837;23;19924;-82
2022/01/09 08:03:38;;;;;;;;;;;4.90;99.90;;;;;;6146579;23;19924;-81
2022/01/09 08:06:03;;;;;;;;;;;4.90;99.90;;;;;;6148416;23;19921;-81
2022/01/09 08:08:32;;;;;;;;;;;5.00;99.90;;;;;;6120586;23;19988;-82
2022/01/09 08:10:57;;;;;;;;;;;5.50;99.90;;;;;;6123656;23;20242;-83
2022/01/09 08:13:32;;;;;;;;;;;4.90;99.90;;;;;;6146988;23;19967;-82
2022/01/09 08:16:07;;;;;;;;;;;4.90;99.90;;;;;;6122650;23;19928;-82
2022/01/09 08:18:41;;;;;;;;;;;4.90;99.90;;;;;;6120454;23;19951;-82
2022/01/09 08:21:07;;;;;;;;;;;4.90;99.90;;;;;;6118775;23;19920;-83
2022/01/09 08:23:36;;;;;;;;;;;6.00;99.90;;;;;;6144449;23;19954;-82
2022/01/09 08:26:02;;;;;;;;;;;4.90;99.90;;;;;;6146299;23;19920;-83
2022/01/09 08:28:41;;;;;;;;;;;5.80;99.90;;;;;;6144032;23;19925;-82
2022/01/09 08:31:08;;;;;;;;;;;4.80;99.90;;;;;;6146758;23;19963;-82
2022/01/09 08:33:33;;;;;;;;;;;4.80;99.90;;;;;;6145363;23;19925;-81
2022/01/09 08:35:59;;;;;;;;;;;4.80;99.90;;;;;;6122519;23;19929;-81
2022/01/09 08:38:25;;;;;;;;;;;4.80;99.90;;;;;;6146265;23;19939;-81
2022/01/09 08:41:00;;;;;;;;;;;4.80;99.90;;;;;;6146058;23;19924;-82
2022/01/09 08:44:00;;;;;;;;;;;4.80;99.90;;;;;;6148309;23;19924;-81
2022/01/09 08:46:29;;;;;;;;;;;4.70;99.90;;;;;;6148836;23;20342;-83
2022/01/09 08:49:07;;;;;;;;;;;4.80;99.90;;;;;;6147005;23;19930;-82
2022/01/09 08:51:38;;;;;;;;;;;4.80;99.90;;;;;;6122767;23;19999;-81
2022/01/09 08:54:04;;;;;;;;;;;4.70;99.90;;;;;;6121802;23;19940;-81
2022/01/09 08:56:42;;;;;;;;;;;5.60;99.90;;;;;;6121625;23;19924;-81
2022/01/09 08:59:07;;;;;;;;;;;4.70;99.90;;;;;;6120508;23;19920;-81
2022/01/09 09:01:49;;;;;;;;;;;4.70;99.90;;;;;;6121961;23;19956;-81
2022/01/09 09:04:15;;;;;;;;;;;4.10;99.90;;;;;;6120073;23;20238;-82
2022/01/09 09:06:41;;;;;;;;;;;5.50;99.90;;;;;;6121331;23;19924;-81
2022/01/09 09:09:07;;;;;;;;;;;4.90;99.90;;;;;;6144843;23;19931;-82
2022/01/09 09:11:45;;;;;;;;;;;4.80;99.90;;;;;;6119704;23;19924;-82
2022/01/09 09:14:14;;;;;;;;;;;4.90;99.90;;;;;;6147087;23;19951;-81
2022/01/09 09:16:45;;;;;;;;;;;5.30;99.90;;;;;;6145983;23;19925;-81
2022/01/09 09:19:17;;;;;;;;;;;4.90;99.90;;;;;;6121637;23;19920;-81
2022/01/09 09:21:43;;;;;;;;;;;4.90;99.90;;;;;;6145869;23;19948;-80
2022/01/09 09:24:09;;;;;;;;;;;4.90;99.90;;;;;;6142285;23;19921;-80
2022/01/09 09:26:34;;;;;;;;;;;4.90;99.90;;;;;;6124119;23;20300;-81
2022/01/09 09:29:00;;;;;;;;;;;4.10;99.90;;;;;;6120047;23;19928;-81
2022/01/09 09:31:26;;;;;;;;;;;5.10;99.90;;;;;;6119368;23;19925;-81
2022/01/09 09:33:51;;;;;;;;;;;5.90;99.90;;;;;;6147195;23;19916;-81
2022/01/09 09:36:21;;;;;;;;;;;5.50;99.90;;;;;;6121936;23;19944;-83
2022/01/09 09:38:56;;;;;;;;;;;5.10;99.90;;;;;;6120847;23;20004;-80
2022/01/09 09:41:28;;;;;;;;;;;4.90;99.90;;;;;;6145953;23;20004;-81
2022/01/09 09:44:01;;;;;;;;;;;5.10;99.90;;;;;;6096321;23;19932;-81
2022/01/09 09:46:27;;;;;;;;;;;5.20;99.90;;;;;;6144378;23;19927;-84
2022/01/09 09:48:54;;;;;;;;;;;5.20;99.90;;;;;;6143881;23;19920;-81
2022/01/09 09:51:24;;;;;;;;;;;5.30;99.90;;;;;;6145956;23;19952;-80
2022/01/09 09:53:59;;;;;;;;;;;6.20;99.90;;;;;;6145215;23;20283;-80
2022/01/09 09:56:24;;;;;;;;;;;5.10;99.90;;;;;;6145789;23;20341;-81
2022/01/09 09:59:24;;;;;;;;;;;5.80;99.90;;;;;;6146501;23;19924;-79
2022/01/09 10:01:50;;;;;;;;;;;5.40;99.90;;;;;;6146538;23;19924;-80
2022/01/09 10:04:28;;;;;;;;;;;5.50;99.90;;;;;;6146779;23;20294;-82
2022/01/09 10:06:53;;;;;;;;;;;5.60;99.90;;;;;;6146033;23;20375;-81
2022/01/09 10:09:25;;;;;;;;;;;5.50;99.90;;;;;;6153368;23;19970;-83
2022/01/09 10:11:55;;;;;;;;;;;5.60;99.90;;;;;;6147246;23;19932;-83
2022/01/09 10:14:21;;;;;;;;;;;5.70;99.90;;;;;;6121355;23;19928;-82
2022/01/09 10:17:04;;;;;;;;;;;5.80;99.90;;;;;;6145749;23;19921;-81
2022/01/09 10:20:01;;;;;;;;;;;5.80;99.90;;;;;;6120685;23;19931;-82
2022/01/09 10:22:53;;;;;;;;;;;5.80;99.90;;;;;;6092793;23;19979;-80
2022/01/09 10:25:21;;;;;;;;;;;5.90;99.90;;;;;;6114372;23;19932;-81
2022/01/09 10:27:54;;;;;;;;;;;6.10;99.90;;;;;;6115405;23;19925;-81
2022/01/09 10:30:24;;;;;;;;;;;6.30;99.90;;;;;;6113844;23;20351;-81
2022/01/09 10:32:54;;;;;;;;;;;6.60;99.90;;;;;;6148023;23;19924;-81
2022/01/09 10:35:23;;;;;;;;;;;6.80;99.90;;;;;;6147143;23;19927;-83
2022/01/09 10:37:50;;;;;;;;;;;7.10;99.90;;;;;;6146991;23;19927;-82
2022/01/09 10:40:20;;;;;;;;;;;7.30;99.90;;;;;;6146366;23;19927;-81
2022/01/09 10:43:01;;;;;;;;;;;7.40;99.90;;;;;;6128134;23;19929;-81
2022/01/09 10:45:29;;;;;;;;;;;7.80;99.90;;;;;;6105646;23;19940;-83
2022/01/09 10:48:16;;;;;;;;;;;8.10;99.90;;;;;;6123558;23;19924;-82
2022/01/09 10:50:42;;;;;;;;;;;8.20;99.90;;;;;;6146946;23;19991;-79
2022/01/09 10:53:34;;;;;;;;;;;8.50;99.90;;;;;;6123716;23;19924;-82
2022/01/09 10:56:01;;;;;;;;;;;8.70;99.90;;;;;;6120191;23;19925;-80
2022/01/09 10:58:39;;;;;;;;;;;9.00;99.90;;;;;;6143874;23;19932;-80
2022/01/09 11:01:15;;;;;;;;;;;8.80;99.90;;;;;;6123720;23;19925;-81
2022/01/09 11:03:42;;;;;;;;;;;9.30;99.90;;;;;;6143297;23;19925;-81
2022/01/09 11:06:09;;;;;;;;;;;9.20;99.90;;;;;;6146082;23;20612;-81
2022/01/09 11:08:35;;;;;;;;;;;8.90;99.90;;;;;;6145105;23;20376;-81
2022/01/09 11:11:02;;;;;;;;;;;8.50;99.90;;;;;;6118525;23;19944;-81
2022/01/09 11:13:28;;;;;;;;;;;8.10;99.90;;;;;;6144480;23;19948;-81
2022/01/09 11:18:41;;;;;;;;;;;7.50;99.90;;;;;;6120963;23;20019;-81
2022/01/09 11:21:07;;;;;;;;;;;7.50;99.90;;;;;;6122397;23;19961;-82
2022/01/09 11:23:41;;;;;;;;;;;7.10;99.90;;;;;;6146959;23;20054;-82
2022/01/09 11:26:09;;;;;;;;;;;7.00;99.90;;;;;;6146569;23;19920;-82
2022/01/09 11:28:36;;;;;;;;;;;6.90;99.90;;;;;;6143316;23;20397;-81
2022/01/09 11:31:15;;;;;;;;;;;6.70;99.90;;;;;;6121173;23;19920;-81
2022/01/09 11:33:50;;;;;;;;;;;6.60;99.90;;;;;;6146764;23;20023;-82
2022/01/09 11:36:20;;;;;;;;;;;6.60;99.90;;;;;;6121614;23;19925;-81
2022/01/09 11:38:45;;;;;;;;;;;6.60;99.90;;;;;;6144173;23;19928;-81
2022/01/09 11:41:17;;;;;;;;;;;6.60;99.90;;;;;;6119901;23;19970;-81
2022/01/09 11:43:58;;;;;;;;;;;6.50;99.90;;;;;;6117507;23;19921;-82
2022/01/09 11:46:24;;;;;;;;;;;6.50;99.90;;;;;;6145068;23;19927;-81
2022/01/09 11:48:52;;;;;;;;;;;6.40;99.90;;;;;;6146921;23;19931;-81
2022/01/09 11:51:20;;;;;;;;;;;6.40;99.90;;;;;;6147427;23;20012;-82
2022/01/09 11:54:01;;;;;;;;;;;6.30;99.90;;;;;;6120109;23;19942;-81
2022/01/09 11:56:45;;;;;;;;;;;6.30;99.90;;;;;;6146976;23;20757;-81
2022/01/09 11:59:21;;;;;;;;;;;6.30;99.90;;;;;;6147168;23;19924;-80
2022/01/09 12:01:47;;;;;;;;;;;6.30;99.90;;;;;;6150798;23;20003;-81
2022/01/09 12:04:35;;;;;;;;;;;6.30;99.90;;;;;;6150367;23;19956;-81
2022/01/09 12:07:07;;;;;;;;;;;6.30;99.90;;;;;;6122943;23;19930;-81
2022/01/09 12:09:33;;;;;;;;;;;6.30;99.90;;;;;;6149668;23;19920;-82
2022/01/09 12:12:10;;;;;;;;;;;6.40;99.90;;;;;;6148893;23;19927;-81
2022/01/09 12:14:44;;;;;;;;;;;6.40;99.90;;;;;;6143946;23;19982;-82
2022/01/09 12:17:22;;;;;;;;;;;6.40;99.90;;;;;;6148579;23;20329;-81
2022/01/09 12:20:15;;;;;;;;;;;6.40;99.90;;;;;;6123812;23;19931;-83
2022/01/09 12:25:08;;;;;;;;;;;6.50;99.90;;;;;;6122029;23;20008;-83
2022/01/09 12:27:45;;;;;;;;;;;6.50;99.90;;;;;;6146833;23;19927;-83
2022/01/09 12:30:36;;;;;;;;;;;6.60;99.90;;;;;;6143557;23;19948;-83
2022/01/09 12:33:05;;;;;;;;;;;6.60;99.90;;;;;;6145599;23;19928;-82
2022/01/09 12:35:31;;;;;;;;;;;6.60;99.90;;;;;;6146072;23;20020;-83
2022/01/09 12:38:00;;;;;;;;;;;6.60;99.90;;;;;;6147423;23;19975;-83
2022/01/09 12:40:27;;;;;;;;;;;6.60;99.90;;;;;;6146436;23;19980;-83
2022/01/09 12:42:54;;;;;;;;;;;7.10;99.90;;;;;;6120670;23;20031;-82
2022/01/09 12:45:19;;;;;;;;;;;6.60;99.90;;;;;;6120752;23;19921;-82
2022/01/09 12:47:45;;;;;;;;;;;6.60;99.90;;;;;;6149224;23;19943;-81
2022/01/09 12:50:10;;;;;;;;;;;6.60;99.90;;;;;;6121356;23;19925;-84
2022/01/09 12:52:36;;;;;;;;;;;6.60;99.90;;;;;;6146975;23;20389;-83
2022/01/09 12:55:02;;;;;;;;;;;6.70;99.90;;;;;;6147659;23;19955;-83
2022/01/09 12:57:28;;;;;;;;;;;6.70;99.90;;;;;;6144266;23;19947;-83
2022/01/09 12:59:57;;;;;;;;;;;6.70;99.90;;;;;;6142589;23;19921;-83
2022/01/09 13:02:22;;;;;;;;;;;6.70;99.90;;;;;;6146429;23;19955;-82
2022/01/09 13:04:48;;;;;;;;;;;6.80;99.90;;;;;;6145468;23;20218;-82
2022/01/09 13:07:14;;;;;;;;;;;6.80;99.90;;;;;;6145318;23;19925;-84
2022/01/09 13:09:39;;;;;;;;;;;6.70;99.90;;;;;;6145003;23;20297;-82
2022/01/09 13:12:05;;;;;;;;;;;7.30;99.90;;;;;;6145829;23;19925;-82
2022/01/09 13:14:30;;;;;;;;;;;6.70;99.90;;;;;;6142080;23;19920;-83
2022/01/09 13:16:58;;;;;;;;;;;6.60;99.90;;;;;;6119239;23;19920;-80
2022/01/09 13:19:23;;;;;;;;;;;6.50;99.90;;;;;;6119685;23;19991;-80
2022/01/09 13:21:51;;;;;;;;;;;6.50;99.90;;;;;;6144742;23;19920;-80
2022/01/09 13:24:20;;;;;;;;;;;6.40;99.90;;;;;;6148030;23;19928;-81
2022/01/09 13:26:46;;;;;;;;;;;6.30;99.90;;;;;;6148072;23;19924;-81
2022/01/09 13:29:13;;;;;;;;;;;6.30;99.90;;;;;;6144134;23;19921;-81
2022/01/09 13:31:39;;;;;;;;;;;6.30;99.90;;;;;;6122214;23;20017;-81
2022/01/09 13:34:07;;;;;;;;;;;6.30;99.90;;;;;;6149220;23;19921;-81
2022/01/09 13:36:38;;;;;;;;;;;6.30;99.90;;;;;;6123100;23;19924;-81
2022/01/09 13:39:06;;;;;;;;;;;6.30;99.90;;;;;;6146803;23;19920;-80
2022/01/09 13:41:37;;;;;;;;;;;6.30;99.90;;;;;;6143641;23;20781;-81
2022/01/09 13:44:06;;;;;;;;;;;6.30;99.90;;;;;;6142557;23;20006;-82
2022/01/09 13:46:32;;;;;;;;;;;6.60;99.90;;;;;;6149283;23;20313;-81
2022/01/09 13:48:57;;;;;;;;;;;6.30;99.90;;;;;;6121838;23;19932;-81
2022/01/09 13:51:39;;;;;;;;;;;6.30;99.90;;;;;;6144841;23;19931;-82
2022/01/09 13:54:06;;;;;;;;;;;6.30;99.90;;;;;;6122200;23;20121;-82
2022/01/09 13:56:32;;;;;;;;;;;6.00;99.90;;;;;;6118957;23;20254;-81
2022/01/09 13:59:02;;;;;;;;;;;6.20;99.90;;;;;;6145238;23;19931;-81
2022/01/09 14:01:41;;;;;;;;;;;6.20;99.90;;;;;;6144620;23;19920;-80
2022/01/09 14:04:11;;;;;;;;;;;6.10;99.90;;;;;;6121432;23;19920;-80
2022/01/09 14:06:36;;;;;;;;;;;6.10;99.90;;;;;;6118155;23;19927;-80
2022/01/09 14:09:02;;;;;;;;;;;6.10;99.90;;;;;;6149683;23;19920;-81
2022/01/09 14:11:27;;;;;;;;;;;6.80;99.90;;;;;;6148553;23;20341;-81
2022/01/09 14:13:53;;;;;;;;;;;6.70;99.90;;;;;;6121010;23;19920;-79
2022/01/09 14:16:22;;;;;;;;;;;6.00;99.90;;;;;;6148334;23;19921;-80
2022/01/09 14:18:56;;;;;;;;;;;5.90;99.90;;;;;;6148050;23;19995;-80
2022/01/09 14:21:22;;;;;;;;;;;5.90;99.90;;;;;;6121995;23;20023;-81
2022/01/09 14:23:49;;;;;;;;;;;5.90;99.90;;;;;;6147442;23;20035;-82
2022/01/09 14:26:15;;;;;;;;;;;5.80;99.90;;;;;;6122980;23;19927;-83
2022/01/09 14:28:42;;;;;;;;;;;6.40;99.90;;;;;;6148727;23;19951;-83
2022/01/09 14:31:15;;;;;;;;;;;5.70;99.90;;;;;;6148500;23;19920;-83
2022/01/09 14:33:42;;;;;;;;;;;5.70;99.90;;;;;;6149239;23;20297;-83
2022/01/09 14:36:10;;;;;;;;;;;6.40;99.90;;;;;;6147976;23;19921;-83
2022/01/09 14:38:45;;;;;;;;;;;5.60;99.90;;;;;;6149410;23;19940;-82
2022/01/09 14:41:13;;;;;;;;;;;5.60;99.90;;;;;;6121465;23;19925;-82
2022/01/09 14:43:39;;;;;;;;;;;5.50;99.90;;;;;;6147753;23;19967;-81
2022/01/09 14:46:05;;;;;;;;;;;5.50;99.90;;;;;;6145146;23;19939;-82
2022/01/09 14:48:33;;;;;;;;;;;5.50;99.90;;;;;;6122997;23;19999;-83
2022/01/09 14:51:00;;;;;;;;;;;5.40;99.90;;;;;;6148210;23;19920;-82
2022/01/09 14:53:25;;;;;;;;;;;5.40;99.90;;;;;;6149440;23;19948;-82
2022/01/09 14:55:51;;;;;;;;;;;5.40;99.90;;;;;;6146580;23;19920;-82